sensor_id;sensor_type;location;lat;lon;timestamp;P1;durP1;ratioP1;P2;durP2;ratioP2
27704;SDS011;15109;50.992;6.918;2022-12-29T00:00:01;0.22;;;0.17;;
27704;SDS011;15109;50.992;6.918;2022-12-29T00:03:33;0.10;;;0.10;;
27704;SDS011;15109;50.992;6.918;2022-12-29T00:06:54;1.98;;;0.60;;
27704;SDS011;15109;50.992;6.918;2022-12-29T00:10:15;0.22;;;0.22;;
27704;SDS011;15109;50.992;6.918;2022-12-29T00:13:36;0.10;;;0.10;;
27704;SDS011;15109;50.992;6.918;2022-12-29T00:17:16;0.43;;;0.20;;
27704;SDS011;15109;50.992;6.918;2022-12-29T00:20:37;0.40;;;0.30;;
27704;SDS011;15109;50.992;6.918;2022-12-29T00:24:21;0.10;;;0.10;;
27704;SDS011;15109;50.992;6.918;2022-12-29T00:27:42;0.60;;;0.50;;
27704;SDS011;15109;50.992;6.918;2022-12-29T00:31:22;0.20;;;0.20;;
27704;SDS011;15109;50.992;6.918;2022-12-29T00:35:01;0.40;;;0.30;;
27704;SDS011;15109;50.992;6.918;2022-12-29T00:38:29;0.10;;;0.10;;
27704;SDS011;15109;50.992;6.918;2022-12-29T00:42:12;0.68;;;0.35;;
27704;SDS011;15109;50.992;6.918;2022-12-29T00:45:51;0.10;;;0.10;;
27704;SDS011;15109;50.992;6.918;2022-12-29T00:49:13;0.30;;;0.20;;
27704;SDS011;15109;50.992;6.918;2022-12-29T00:52:53;0.10;;;0.10;;
27704;SDS011;15109;50.992;6.918;2022-12-29T00:56:14;0.10;;;0.10;;
27704;SDS011;15109;50.992;6.918;2022-12-29T00:59:35;0.10;;;0.10;;
27704;SDS011;15109;50.992;6.918;2022-12-29T01:02:57;0.20;;;0.20;;
27704;SDS011;15109;50.992;6.918;2022-12-29T01:06:18;1.27;;;0.45;;
27704;SDS011;15109;50.992;6.918;2022-12-29T01:09:39;0.05;;;0.05;;
27704;SDS011;15109;50.992;6.918;2022-12-29T01:13:19;0.00;;;0.00;;
27704;SDS011;15109;50.992;6.918;2022-12-29T01:16:40;0.55;;;0.30;;
27704;SDS011;15109;50.992;6.918;2022-12-29T01:20:01;0.10;;;0.10;;
27704;SDS011;15109;50.992;6.918;2022-12-29T01:23:23;0.45;;;0.20;;
27704;SDS011;15109;50.992;6.918;2022-12-29T01:26:44;0.10;;;0.10;;
27704;SDS011;15109;50.992;6.918;2022-12-29T01:30:05;0.10;;;0.10;;
27704;SDS011;15109;50.992;6.918;2022-12-29T01:33:27;0.10;;;0.10;;
27704;SDS011;15109;50.992;6.918;2022-12-29T01:36:48;0.40;;;0.20;;
27704;SDS011;15109;50.992;6.918;2022-12-29T01:40:09;0.00;;;0.00;;
27704;SDS011;15109;50.992;6.918;2022-12-29T01:47:01;0.00;;;0.00;;
27704;SDS011;15109;50.992;6.918;2022-12-29T01:50:29;0.10;;;0.10;;
27704;SDS011;15109;50.992;6.918;2022-12-29T01:53:53;0.10;;;0.10;;
27704;SDS011;15109;50.992;6.918;2022-12-29T01:57:19;0.00;;;0.00;;
27704;SDS011;15109;50.992;6.918;2022-12-29T02:00:43;0.20;;;0.20;;
27704;SDS011;15109;50.992;6.918;2022-12-29T02:04:04;0.10;;;0.10;;
27704;SDS011;15109;50.992;6.918;2022-12-29T02:07:25;0.10;;;0.10;;
27704;SDS011;15109;50.992;6.918;2022-12-29T02:10:48;0.57;;;0.32;;
27704;SDS011;15109;50.992;6.918;2022-12-29T02:14:11;3.30;;;0.45;;
27704;SDS011;15109;50.992;6.918;2022-12-29T02:32:46;0.40;;;0.38;;
27704;SDS011;15109;50.992;6.918;2022-12-29T02:36:33;1.10;;;0.50;;
27704;SDS011;15109;50.992;6.918;2022-12-29T02:48:03;0.55;;;0.17;;
27704;SDS011;15109;50.992;6.918;2022-12-29T02:51:15;0.10;;;0.10;;
27704;SDS011;15109;50.992;6.918;2022-12-29T02:54:42;0.95;;;0.32;;
27704;SDS011;15109;50.992;6.918;2022-12-29T02:58:09;0.68;;;0.28;;
27704;SDS011;15109;50.992;6.918;2022-12-29T03:01:56;0.10;;;0.10;;
27704;SDS011;15109;50.992;6.918;2022-12-29T03:05:59;0.15;;;0.15;;
27704;SDS011;15109;50.992;6.918;2022-12-29T03:17:16;0.65;;;0.32;;
27704;SDS011;15109;50.992;6.918;2022-12-29T03:21:12;0.22;;;0.22;;
27704;SDS011;15109;50.992;6.918;2022-12-29T03:24:40;0.20;;;0.20;;
27704;SDS011;15109;50.992;6.918;2022-12-29T03:28:22;2.25;;;0.35;;
27704;SDS011;15109;50.992;6.918;2022-12-29T03:31:47;0.20;;;0.20;;
27704;SDS011;15109;50.992;6.918;2022-12-29T03:35:12;0.00;;;0.00;;
27704;SDS011;15109;50.992;6.918;2022-12-29T03:38:39;0.05;;;0.05;;
27704;SDS011;15109;50.992;6.918;2022-12-29T03:42:17;0.00;;;0.00;;
27704;SDS011;15109;50.992;6.918;2022-12-29T03:45:42;0.10;;;0.10;;
27704;SDS011;15109;50.992;6.918;2022-12-29T03:49:04;0.10;;;0.10;;
27704;SDS011;15109;50.992;6.918;2022-12-29T03:52:25;0.45;;;0.20;;
27704;SDS011;15109;50.992;6.918;2022-12-29T03:55:48;0.10;;;0.10;;
27704;SDS011;15109;50.992;6.918;2022-12-29T03:59:10;0.08;;;0.08;;
27704;SDS011;15109;50.992;6.918;2022-12-29T04:02:34;0.00;;;0.00;;
27704;SDS011;15109;50.992;6.918;2022-12-29T04:05:57;0.13;;;0.10;;
27704;SDS011;15109;50.992;6.918;2022-12-29T04:09:19;0.10;;;0.10;;
27704;SDS011;15109;50.992;6.918;2022-12-29T04:12:43;0.30;;;0.20;;
27704;SDS011;15109;50.992;6.918;2022-12-29T04:16:06;0.28;;;0.20;;
27704;SDS011;15109;50.992;6.918;2022-12-29T04:19:28;0.35;;;0.20;;
27704;SDS011;15109;50.992;6.918;2022-12-29T04:22:50;0.15;;;0.10;;
27704;SDS011;15109;50.992;6.918;2022-12-29T04:26:19;0.00;;;0.00;;
27704;SDS011;15109;50.992;6.918;2022-12-29T04:29:50;0.20;;;0.15;;
27704;SDS011;15109;50.992;6.918;2022-12-29T04:33:33;0.57;;;0.22;;
27704;SDS011;15109;50.992;6.918;2022-12-29T04:36:55;0.32;;;0.20;;
27704;SDS011;15109;50.992;6.918;2022-12-29T04:40:16;0.32;;;0.20;;
27704;SDS011;15109;50.992;6.918;2022-12-29T04:43:38;0.65;;;0.30;;
27704;SDS011;15109;50.992;6.918;2022-12-29T04:47:11;0.43;;;0.20;;
27704;SDS011;15109;50.992;6.918;2022-12-29T04:50:50;0.08;;;0.08;;
27704;SDS011;15109;50.992;6.918;2022-12-29T04:54:13;0.13;;;0.13;;
27704;SDS011;15109;50.992;6.918;2022-12-29T04:57:35;0.13;;;0.13;;
27704;SDS011;15109;50.992;6.918;2022-12-29T05:00:56;0.30;;;0.20;;
27704;SDS011;15109;50.992;6.918;2022-12-29T05:04:20;0.22;;;0.20;;
27704;SDS011;15109;50.992;6.918;2022-12-29T05:07:41;0.10;;;0.10;;
27704;SDS011;15109;50.992;6.918;2022-12-29T05:11:03;0.40;;;0.30;;
27704;SDS011;15109;50.992;6.918;2022-12-29T05:14:24;0.80;;;0.30;;
27704;SDS011;15109;50.992;6.918;2022-12-29T05:17:45;0.03;;;0.03;;
27704;SDS011;15109;50.992;6.918;2022-12-29T05:21:06;0.30;;;0.20;;
27704;SDS011;15109;50.992;6.918;2022-12-29T05:24:29;0.15;;;0.15;;
27704;SDS011;15109;50.992;6.918;2022-12-29T05:27:51;2.10;;;0.52;;
27704;SDS011;15109;50.992;6.918;2022-12-29T05:31:19;0.40;;;0.20;;
27704;SDS011;15109;50.992;6.918;2022-12-29T05:34:40;0.43;;;0.30;;
27704;SDS011;15109;50.992;6.918;2022-12-29T05:38:01;0.32;;;0.22;;
27704;SDS011;15109;50.992;6.918;2022-12-29T05:41:22;0.10;;;0.10;;
27704;SDS011;15109;50.992;6.918;2022-12-29T05:45:02;0.20;;;0.20;;
27704;SDS011;15109;50.992;6.918;2022-12-29T05:48:43;0.20;;;0.20;;
27704;SDS011;15109;50.992;6.918;2022-12-29T05:52:16;0.35;;;0.10;;
27704;SDS011;15109;50.992;6.918;2022-12-29T05:55:37;0.20;;;0.20;;
27704;SDS011;15109;50.992;6.918;2022-12-29T05:58:58;0.10;;;0.10;;
27704;SDS011;15109;50.992;6.918;2022-12-29T06:02:20;0.10;;;0.10;;
27704;SDS011;15109;50.992;6.918;2022-12-29T06:05:42;0.05;;;0.05;;
27704;SDS011;15109;50.992;6.918;2022-12-29T06:09:05;0.10;;;0.10;;
27704;SDS011;15109;50.992;6.918;2022-12-29T06:12:26;0.38;;;0.20;;
27704;SDS011;15109;50.992;6.918;2022-12-29T06:15:49;0.38;;;0.30;;
27704;SDS011;15109;50.992;6.918;2022-12-29T06:19:12;2.05;;;0.52;;
27704;SDS011;15109;50.992;6.918;2022-12-29T06:22:34;0.10;;;0.10;;
27704;SDS011;15109;50.992;6.918;2022-12-29T06:25:56;0.55;;;0.20;;
27704;SDS011;15109;50.992;6.918;2022-12-29T06:29:17;0.80;;;0.20;;
27704;SDS011;15109;50.992;6.918;2022-12-29T06:32:39;0.10;;;0.10;;
27704;SDS011;15109;50.992;6.918;2022-12-29T06:36:04;0.55;;;0.35;;
27704;SDS011;15109;50.992;6.918;2022-12-29T06:39:26;0.00;;;0.00;;
27704;SDS011;15109;50.992;6.918;2022-12-29T06:43:01;0.10;;;0.10;;
27704;SDS011;15109;50.992;6.918;2022-12-29T06:46:37;0.47;;;0.22;;
27704;SDS011;15109;50.992;6.918;2022-12-29T06:49:58;1.17;;;0.40;;
27704;SDS011;15109;50.992;6.918;2022-12-29T06:53:20;0.10;;;0.10;;
27704;SDS011;15109;50.992;6.918;2022-12-29T06:56:41;0.10;;;0.10;;
27704;SDS011;15109;50.992;6.918;2022-12-29T07:00:02;0.40;;;0.20;;
27704;SDS011;15109;50.992;6.918;2022-12-29T07:03:26;0.10;;;0.10;;
27704;SDS011;15109;50.992;6.918;2022-12-29T07:06:47;2.58;;;0.50;;
27704;SDS011;15109;50.992;6.918;2022-12-29T07:10:09;0.08;;;0.08;;
27704;SDS011;15109;50.992;6.918;2022-12-29T07:13:30;0.15;;;0.15;;
27704;SDS011;15109;50.992;6.918;2022-12-29T07:16:51;0.47;;;0.25;;
27704;SDS011;15109;50.992;6.918;2022-12-29T07:20:12;0.10;;;0.10;;
27704;SDS011;15109;50.992;6.918;2022-12-29T07:23:33;0.10;;;0.10;;
27704;SDS011;15109;50.992;6.918;2022-12-29T07:26:54;0.30;;;0.25;;
27704;SDS011;15109;50.992;6.918;2022-12-29T07:30:15;0.10;;;0.10;;
27704;SDS011;15109;50.992;6.918;2022-12-29T07:33:36;0.00;;;0.00;;
27704;SDS011;15109;50.992;6.918;2022-12-29T07:36:57;0.00;;;0.00;;
27704;SDS011;15109;50.992;6.918;2022-12-29T07:40:18;0.90;;;0.22;;
27704;SDS011;15109;50.992;6.918;2022-12-29T07:43:39;0.10;;;0.10;;
27704;SDS011;15109;50.992;6.918;2022-12-29T07:47:17;0.52;;;0.32;;
27704;SDS011;15109;50.992;6.918;2022-12-29T07:50:38;0.10;;;0.10;;
27704;SDS011;15109;50.992;6.918;2022-12-29T07:53:59;0.75;;;0.25;;
27704;SDS011;15109;50.992;6.918;2022-12-29T07:57:21;0.43;;;0.22;;
27704;SDS011;15109;50.992;6.918;2022-12-29T08:00:42;2.17;;;1.15;;
27704;SDS011;15109;50.992;6.918;2022-12-29T08:04:03;1.33;;;0.65;;
27704;SDS011;15109;50.992;6.918;2022-12-29T08:07:24;1.40;;;0.70;;
27704;SDS011;15109;50.992;6.918;2022-12-29T08:10:45;1.20;;;0.45;;
27704;SDS011;15109;50.992;6.918;2022-12-29T08:14:06;1.33;;;0.20;;
27704;SDS011;15109;50.992;6.918;2022-12-29T08:17:27;3.97;;;0.73;;
27704;SDS011;15109;50.992;6.918;2022-12-29T08:20:48;0.43;;;0.35;;
27704;SDS011;15109;50.992;6.918;2022-12-29T08:24:10;1.20;;;0.50;;
27704;SDS011;15109;50.992;6.918;2022-12-29T08:27:31;0.95;;;0.32;;
27704;SDS011;15109;50.992;6.918;2022-12-29T08:30:52;0.00;;;0.00;;
27704;SDS011;15109;50.992;6.918;2022-12-29T08:34:13;0.43;;;0.32;;
27704;SDS011;15109;50.992;6.918;2022-12-29T08:37:34;2.80;;;0.40;;
27704;SDS011;15109;50.992;6.918;2022-12-29T08:40:56;1.17;;;0.57;;
27704;SDS011;15109;50.992;6.918;2022-12-29T08:44:18;0.90;;;0.47;;
27704;SDS011;15109;50.992;6.918;2022-12-29T08:51:50;0.80;;;0.43;;
27704;SDS011;15109;50.992;6.918;2022-12-29T08:55:11;2.28;;;0.40;;
27704;SDS011;15109;50.992;6.918;2022-12-29T08:58:32;0.70;;;0.32;;
27704;SDS011;15109;50.992;6.918;2022-12-29T09:01:53;0.75;;;0.40;;
27704;SDS011;15109;50.992;6.918;2022-12-29T09:05:16;0.35;;;0.28;;
27704;SDS011;15109;50.992;6.918;2022-12-29T09:08:37;1.40;;;0.50;;
27704;SDS011;15109;50.992;6.918;2022-12-29T09:11:58;0.98;;;0.50;;
27704;SDS011;15109;50.992;6.918;2022-12-29T09:15:19;0.88;;;0.50;;
27704;SDS011;15109;50.992;6.918;2022-12-29T09:18:40;1.85;;;0.35;;
27704;SDS011;15109;50.992;6.918;2022-12-29T09:22:01;0.57;;;0.38;;
27704;SDS011;15109;50.992;6.918;2022-12-29T09:25:22;0.10;;;0.10;;
27704;SDS011;15109;50.992;6.918;2022-12-29T09:28:44;0.10;;;0.10;;
27704;SDS011;15109;50.992;6.918;2022-12-29T09:32:06;2.90;;;0.57;;
27704;SDS011;15109;50.992;6.918;2022-12-29T09:35:28;0.20;;;0.20;;
27704;SDS011;15109;50.992;6.918;2022-12-29T09:38:49;0.98;;;0.35;;
27704;SDS011;15109;50.992;6.918;2022-12-29T09:45:53;2.00;;;0.73;;
27704;SDS011;15109;50.992;6.918;2022-12-29T09:56:37;2.63;;;0.63;;
27704;SDS011;15109;50.992;6.918;2022-12-29T09:59:59;1.98;;;0.52;;
27704;SDS011;15109;50.992;6.918;2022-12-29T10:03:46;1.02;;;0.30;;
27704;SDS011;15109;50.992;6.918;2022-12-29T10:07:11;3.22;;;0.77;;
27704;SDS011;15109;50.992;6.918;2022-12-29T10:22:16;3.67;;;0.30;;
27704;SDS011;15109;50.992;6.918;2022-12-29T10:26:09;0.35;;;0.17;;
27704;SDS011;15109;50.992;6.918;2022-12-29T10:29:56;0.90;;;0.30;;
27704;SDS011;15109;50.992;6.918;2022-12-29T10:33:24;0.20;;;0.20;;
27704;SDS011;15109;50.992;6.918;2022-12-29T10:40:48;0.98;;;0.43;;
27704;SDS011;15109;50.992;6.918;2022-12-29T10:44:27;0.75;;;0.22;;
27704;SDS011;15109;50.992;6.918;2022-12-29T10:51:37;0.10;;;0.10;;
27704;SDS011;15109;50.992;6.918;2022-12-29T10:55:07;0.52;;;0.38;;
27704;SDS011;15109;50.992;6.918;2022-12-29T10:58:35;0.25;;;0.25;;
27704;SDS011;15109;50.992;6.918;2022-12-29T11:05:23;0.40;;;0.30;;
27704;SDS011;15109;50.992;6.918;2022-12-29T11:09:08;5.63;;;0.70;;
27704;SDS011;15109;50.992;6.918;2022-12-29T11:12:33;4.47;;;0.85;;
27704;SDS011;15109;50.992;6.918;2022-12-29T11:15:54;1.08;;;0.25;;
27704;SDS011;15109;50.992;6.918;2022-12-29T11:19:22;4.18;;;0.68;;
27704;SDS011;15109;50.992;6.918;2022-12-29T11:22:45;2.08;;;0.57;;
27704;SDS011;15109;50.992;6.918;2022-12-29T11:29:38;0.85;;;0.32;;
27704;SDS011;15109;50.992;6.918;2022-12-29T11:33:02;0.32;;;0.15;;
27704;SDS011;15109;50.992;6.918;2022-12-29T11:36:24;2.45;;;0.57;;
27704;SDS011;15109;50.992;6.918;2022-12-29T11:43:26;1.75;;;0.50;;
27704;SDS011;15109;50.992;6.918;2022-12-29T11:46:54;1.57;;;0.60;;
27704;SDS011;15109;50.992;6.918;2022-12-29T11:50:35;4.95;;;0.55;;
27704;SDS011;15109;50.992;6.918;2022-12-29T11:54:00;1.80;;;0.50;;
27704;SDS011;15109;50.992;6.918;2022-12-29T11:57:24;1.77;;;0.60;;
27704;SDS011;15109;50.992;6.918;2022-12-29T12:00:46;1.10;;;0.45;;
27704;SDS011;15109;50.992;6.918;2022-12-29T12:04:12;1.75;;;0.57;;
27704;SDS011;15109;50.992;6.918;2022-12-29T12:14:50;0.32;;;0.28;;
27704;SDS011;15109;50.992;6.918;2022-12-29T12:19:03;2.65;;;0.60;;
27704;SDS011;15109;50.992;6.918;2022-12-29T12:22:37;0.50;;;0.43;;
27704;SDS011;15109;50.992;6.918;2022-12-29T12:26:11;3.75;;;0.77;;
27704;SDS011;15109;50.992;6.918;2022-12-29T12:29:38;3.92;;;0.88;;
27704;SDS011;15109;50.992;6.918;2022-12-29T12:47:54;1.23;;;0.50;;
27704;SDS011;15109;50.992;6.918;2022-12-29T13:02:36;0.90;;;0.38;;
27704;SDS011;15109;50.992;6.918;2022-12-29T13:06:50;1.90;;;0.22;;
27704;SDS011;15109;50.992;6.918;2022-12-29T13:10:16;1.52;;;0.73;;
27704;SDS011;15109;50.992;6.918;2022-12-29T13:25:32;1.83;;;0.45;;
27704;SDS011;15109;50.992;6.918;2022-12-29T13:32:55;0.85;;;0.55;;
27704;SDS011;15109;50.992;6.918;2022-12-29T13:36:30;0.75;;;0.25;;
27704;SDS011;15109;50.992;6.918;2022-12-29T13:40:04;3.20;;;0.45;;
27704;SDS011;15109;50.992;6.918;2022-12-29T13:43:35;1.50;;;0.47;;
27704;SDS011;15109;50.992;6.918;2022-12-29T13:47:02;0.98;;;0.35;;
27704;SDS011;15109;50.992;6.918;2022-12-29T13:50:38;1.20;;;0.55;;
27704;SDS011;15109;50.992;6.918;2022-12-29T13:54:07;0.80;;;0.38;;
27704;SDS011;15109;50.992;6.918;2022-12-29T14:08:20;0.35;;;0.30;;
27704;SDS011;15109;50.992;6.918;2022-12-29T14:11:41;0.30;;;0.25;;
27704;SDS011;15109;50.992;6.918;2022-12-29T14:15:03;2.55;;;0.60;;
27704;SDS011;15109;50.992;6.918;2022-12-29T14:18:43;1.77;;;0.52;;
27704;SDS011;15109;50.992;6.918;2022-12-29T14:22:05;0.13;;;0.13;;
27704;SDS011;15109;50.992;6.918;2022-12-29T14:32:47;2.17;;;0.52;;
27704;SDS011;15109;50.992;6.918;2022-12-29T14:36:25;0.15;;;0.08;;
27704;SDS011;15109;50.992;6.918;2022-12-29T14:40:14;7.13;;;0.47;;
27704;SDS011;15109;50.992;6.918;2022-12-29T14:43:36;0.52;;;0.40;;
27704;SDS011;15109;50.992;6.918;2022-12-29T14:46:58;2.30;;;0.85;;
27704;SDS011;15109;50.992;6.918;2022-12-29T14:50:34;0.82;;;0.45;;
27704;SDS011;15109;50.992;6.918;2022-12-29T14:54:17;0.55;;;0.30;;
27704;SDS011;15109;50.992;6.918;2022-12-29T14:57:59;0.10;;;0.10;;
27704;SDS011;15109;50.992;6.918;2022-12-29T15:02:11;0.98;;;0.25;;
27704;SDS011;15109;50.992;6.918;2022-12-29T15:05:27;1.02;;;0.50;;
27704;SDS011;15109;50.992;6.918;2022-12-29T15:09:04;0.20;;;0.20;;
27704;SDS011;15109;50.992;6.918;2022-12-29T15:12:48;0.22;;;0.22;;
27704;SDS011;15109;50.992;6.918;2022-12-29T15:19:46;3.03;;;0.50;;
27704;SDS011;15109;50.992;6.918;2022-12-29T15:23:10;4.32;;;0.75;;
27704;SDS011;15109;50.992;6.918;2022-12-29T15:26:39;1.70;;;0.73;;
27704;SDS011;15109;50.992;6.918;2022-12-29T15:30:03;4.28;;;0.60;;
27704;SDS011;15109;50.992;6.918;2022-12-29T15:33:28;1.65;;;0.43;;
27704;SDS011;15109;50.992;6.918;2022-12-29T15:36:49;0.73;;;0.40;;
27704;SDS011;15109;50.992;6.918;2022-12-29T15:40:21;1.10;;;0.45;;
27704;SDS011;15109;50.992;6.918;2022-12-29T15:47:37;1.65;;;0.40;;
27704;SDS011;15109;50.992;6.918;2022-12-29T15:50:59;0.73;;;0.40;;
27704;SDS011;15109;50.992;6.918;2022-12-29T15:54:21;0.25;;;0.25;;
27704;SDS011;15109;50.992;6.918;2022-12-29T15:57:44;5.30;;;0.77;;
27704;SDS011;15109;50.992;6.918;2022-12-29T16:01:15;1.65;;;1.02;;
27704;SDS011;15109;50.992;6.918;2022-12-29T16:04:44;2.92;;;0.70;;
27704;SDS011;15109;50.992;6.918;2022-12-29T16:08:24;0.73;;;0.40;;
27704;SDS011;15109;50.992;6.918;2022-12-29T16:11:53;0.77;;;0.68;;
27704;SDS011;15109;50.992;6.918;2022-12-29T16:15:16;1.95;;;0.77;;
27704;SDS011;15109;50.992;6.918;2022-12-29T16:18:38;1.23;;;0.65;;
27704;SDS011;15109;50.992;6.918;2022-12-29T16:22:00;0.98;;;0.50;;
27704;SDS011;15109;50.992;6.918;2022-12-29T16:25:24;2.38;;;0.77;;
27704;SDS011;15109;50.992;6.918;2022-12-29T16:28:57;0.30;;;0.25;;
27704;SDS011;15109;50.992;6.918;2022-12-29T16:32:24;0.35;;;0.20;;
27704;SDS011;15109;50.992;6.918;2022-12-29T16:35:47;7.35;;;0.80;;
27704;SDS011;15109;50.992;6.918;2022-12-29T16:39:24;5.07;;;0.95;;
27704;SDS011;15109;50.992;6.918;2022-12-29T16:42:47;0.63;;;0.40;;
27704;SDS011;15109;50.992;6.918;2022-12-29T16:49:40;5.55;;;1.00;;
27704;SDS011;15109;50.992;6.918;2022-12-29T16:53:06;14.33;;;1.20;;
27704;SDS011;15109;50.992;6.918;2022-12-29T16:56:45;7.32;;;0.75;;
27704;SDS011;15109;50.992;6.918;2022-12-29T17:00:07;1.20;;;0.63;;
27704;SDS011;15109;50.992;6.918;2022-12-29T17:03:38;5.63;;;1.65;;
27704;SDS011;15109;50.992;6.918;2022-12-29T17:07:08;5.68;;;1.13;;
27704;SDS011;15109;50.992;6.918;2022-12-29T17:10:40;2.22;;;0.88;;
27704;SDS011;15109;50.992;6.918;2022-12-29T17:18:03;2.92;;;0.68;;
27704;SDS011;15109;50.992;6.918;2022-12-29T17:21:25;2.35;;;0.50;;
27704;SDS011;15109;50.992;6.918;2022-12-29T17:24:46;2.97;;;0.82;;
27704;SDS011;15109;50.992;6.918;2022-12-29T17:31:40;3.50;;;0.50;;
27704;SDS011;15109;50.992;6.918;2022-12-29T17:35:01;1.75;;;0.80;;
27704;SDS011;15109;50.992;6.918;2022-12-29T17:38:30;2.58;;;0.55;;
27704;SDS011;15109;50.992;6.918;2022-12-29T17:41:54;25.33;;;1.52;;
27704;SDS011;15109;50.992;6.918;2022-12-29T17:45:16;10.60;;;2.33;;
27704;SDS011;15109;50.992;6.918;2022-12-29T17:48:39;11.00;;;1.10;;
27704;SDS011;15109;50.992;6.918;2022-12-29T17:52:00;2.08;;;0.93;;
27704;SDS011;15109;50.992;6.918;2022-12-29T17:55:22;2.45;;;0.73;;
27704;SDS011;15109;50.992;6.918;2022-12-29T17:58:44;1.00;;;0.40;;
27704;SDS011;15109;50.992;6.918;2022-12-29T18:02:20;0.57;;;0.40;;
27704;SDS011;15109;50.992;6.918;2022-12-29T18:05:45;4.85;;;0.95;;
27704;SDS011;15109;50.992;6.918;2022-12-29T18:09:06;5.38;;;1.48;;
27704;SDS011;15109;50.992;6.918;2022-12-29T18:16:04;3.17;;;1.02;;
27704;SDS011;15109;50.992;6.918;2022-12-29T18:19:25;5.38;;;1.23;;
27704;SDS011;15109;50.992;6.918;2022-12-29T18:22:46;1.20;;;0.75;;
27704;SDS011;15109;50.992;6.918;2022-12-29T18:26:18;6.90;;;1.17;;
27704;SDS011;15109;50.992;6.918;2022-12-29T18:29:43;3.70;;;1.00;;
27704;SDS011;15109;50.992;6.918;2022-12-29T18:33:04;3.17;;;0.95;;
27704;SDS011;15109;50.992;6.918;2022-12-29T18:36:25;8.05;;;1.42;;
27704;SDS011;15109;50.992;6.918;2022-12-29T18:39:47;4.60;;;1.20;;
27704;SDS011;15109;50.992;6.918;2022-12-29T18:43:10;3.10;;;0.50;;
27704;SDS011;15109;50.992;6.918;2022-12-29T18:46:33;6.50;;;1.67;;
27704;SDS011;15109;50.992;6.918;2022-12-29T18:49:54;7.80;;;1.35;;
27704;SDS011;15109;50.992;6.918;2022-12-29T18:53:16;2.00;;;0.80;;
27704;SDS011;15109;50.992;6.918;2022-12-29T18:56:43;0.90;;;0.63;;
27704;SDS011;15109;50.992;6.918;2022-12-29T19:00:08;6.03;;;0.60;;
27704;SDS011;15109;50.992;6.918;2022-12-29T19:03:32;0.38;;;0.30;;
27704;SDS011;15109;50.992;6.918;2022-12-29T19:06:53;4.82;;;0.75;;
27704;SDS011;15109;50.992;6.918;2022-12-29T19:10:15;4.72;;;0.80;;
27704;SDS011;15109;50.992;6.918;2022-12-29T19:13:36;8.25;;;1.10;;
27704;SDS011;15109;50.992;6.918;2022-12-29T19:16:58;4.25;;;0.75;;
27704;SDS011;15109;50.992;6.918;2022-12-29T19:20:32;2.72;;;0.90;;
27704;SDS011;15109;50.992;6.918;2022-12-29T19:23:55;1.75;;;1.02;;
27704;SDS011;15109;50.992;6.918;2022-12-29T19:27:17;14.00;;;2.25;;
27704;SDS011;15109;50.992;6.918;2022-12-29T19:30:38;7.65;;;1.75;;
27704;SDS011;15109;50.992;6.918;2022-12-29T19:34:02;2.08;;;0.90;;
27704;SDS011;15109;50.992;6.918;2022-12-29T19:37:23;6.15;;;0.60;;
27704;SDS011;15109;50.992;6.918;2022-12-29T19:40:48;2.13;;;0.82;;
27704;SDS011;15109;50.992;6.918;2022-12-29T19:44:10;2.95;;;0.73;;
27704;SDS011;15109;50.992;6.918;2022-12-29T19:47:31;2.90;;;0.93;;
27704;SDS011;15109;50.992;6.918;2022-12-29T19:50:53;5.13;;;0.63;;
27704;SDS011;15109;50.992;6.918;2022-12-29T19:54:14;1.85;;;0.52;;
27704;SDS011;15109;50.992;6.918;2022-12-29T19:57:35;4.13;;;1.08;;
27704;SDS011;15109;50.992;6.918;2022-12-29T20:01:01;1.25;;;0.68;;
27704;SDS011;15109;50.992;6.918;2022-12-29T20:04:31;1.60;;;0.63;;
27704;SDS011;15109;50.992;6.918;2022-12-29T20:07:52;3.33;;;0.95;;
27704;SDS011;15109;50.992;6.918;2022-12-29T20:11:14;3.42;;;0.77;;
27704;SDS011;15109;50.992;6.918;2022-12-29T20:14:37;7.32;;;0.75;;
27704;SDS011;15109;50.992;6.918;2022-12-29T20:17:59;3.30;;;0.68;;
27704;SDS011;15109;50.992;6.918;2022-12-29T20:21:21;2.88;;;0.80;;
27704;SDS011;15109;50.992;6.918;2022-12-29T20:24:44;5.32;;;0.57;;
27704;SDS011;15109;50.992;6.918;2022-12-29T20:28:05;5.28;;;0.95;;
27704;SDS011;15109;50.992;6.918;2022-12-29T20:31:27;2.88;;;0.80;;
27704;SDS011;15109;50.992;6.918;2022-12-29T20:34:50;1.40;;;0.50;;
27704;SDS011;15109;50.992;6.918;2022-12-29T20:38:12;4.20;;;0.98;;
27704;SDS011;15109;50.992;6.918;2022-12-29T20:41:34;1.17;;;0.63;;
27704;SDS011;15109;50.992;6.918;2022-12-29T20:44:55;1.65;;;0.60;;
27704;SDS011;15109;50.992;6.918;2022-12-29T20:48:16;1.65;;;0.85;;
27704;SDS011;15109;50.992;6.918;2022-12-29T20:51:37;10.02;;;2.53;;
27704;SDS011;15109;50.992;6.918;2022-12-29T20:54:59;3.83;;;1.92;;
27704;SDS011;15109;50.992;6.918;2022-12-29T20:58:20;2.45;;;0.98;;
27704;SDS011;15109;50.992;6.918;2022-12-29T21:01:41;2.97;;;1.05;;
27704;SDS011;15109;50.992;6.918;2022-12-29T21:05:02;5.60;;;1.35;;
27704;SDS011;15109;50.992;6.918;2022-12-29T21:08:23;3.13;;;1.10;;
27704;SDS011;15109;50.992;6.918;2022-12-29T21:11:45;3.22;;;1.05;;
27704;SDS011;15109;50.992;6.918;2022-12-29T21:15:07;2.40;;;0.90;;
27704;SDS011;15109;50.992;6.918;2022-12-29T21:18:29;1.48;;;0.70;;
27704;SDS011;15109;50.992;6.918;2022-12-29T21:21:51;1.52;;;0.75;;
27704;SDS011;15109;50.992;6.918;2022-12-29T21:25:13;1.13;;;0.50;;
27704;SDS011;15109;50.992;6.918;2022-12-29T21:28:35;1.48;;;0.47;;
27704;SDS011;15109;50.992;6.918;2022-12-29T21:31:57;2.22;;;0.98;;
27704;SDS011;15109;50.992;6.918;2022-12-29T21:35:22;7.32;;;1.08;;
27704;SDS011;15109;50.992;6.918;2022-12-29T21:38:43;6.20;;;0.80;;
27704;SDS011;15109;50.992;6.918;2022-12-29T21:42:04;1.70;;;0.77;;
27704;SDS011;15109;50.992;6.918;2022-12-29T21:45:26;4.18;;;0.93;;
27704;SDS011;15109;50.992;6.918;2022-12-29T21:48:47;4.93;;;0.85;;
27704;SDS011;15109;50.992;6.918;2022-12-29T21:52:08;2.45;;;0.88;;
27704;SDS011;15109;50.992;6.918;2022-12-29T21:55:29;6.80;;;1.45;;
27704;SDS011;15109;50.992;6.918;2022-12-29T21:58:50;9.30;;;1.52;;
27704;SDS011;15109;50.992;6.918;2022-12-29T22:02:30;8.65;;;2.30;;
27704;SDS011;15109;50.992;6.918;2022-12-29T22:06:09;3.03;;;1.40;;
27704;SDS011;15109;50.992;6.918;2022-12-29T22:09:49;3.70;;;1.80;;
27704;SDS011;15109;50.992;6.918;2022-12-29T22:13:30;5.50;;;1.85;;
27704;SDS011;15109;50.992;6.918;2022-12-29T22:16:52;4.28;;;1.50;;
27704;SDS011;15109;50.992;6.918;2022-12-29T22:20:13;7.28;;;1.77;;
27704;SDS011;15109;50.992;6.918;2022-12-29T22:23:38;3.15;;;1.05;;
27704;SDS011;15109;50.992;6.918;2022-12-29T22:26:59;5.22;;;1.25;;
27704;SDS011;15109;50.992;6.918;2022-12-29T22:30:20;5.22;;;1.02;;
27704;SDS011;15109;50.992;6.918;2022-12-29T22:33:43;1.13;;;0.57;;
27704;SDS011;15109;50.992;6.918;2022-12-29T22:37:07;3.23;;;0.57;;
27704;SDS011;15109;50.992;6.918;2022-12-29T22:40:28;4.93;;;1.25;;
27704;SDS011;15109;50.992;6.918;2022-12-29T22:43:50;2.60;;;0.80;;
27704;SDS011;15109;50.992;6.918;2022-12-29T22:47:11;1.45;;;0.70;;
27704;SDS011;15109;50.992;6.918;2022-12-29T22:50:32;5.18;;;0.80;;
27704;SDS011;15109;50.992;6.918;2022-12-29T22:53:53;4.43;;;1.00;;
27704;SDS011;15109;50.992;6.918;2022-12-29T22:57:14;1.35;;;0.75;;
27704;SDS011;15109;50.992;6.918;2022-12-29T23:00:35;2.67;;;0.88;;
27704;SDS011;15109;50.992;6.918;2022-12-29T23:03:56;5.55;;;1.10;;
27704;SDS011;15109;50.992;6.918;2022-12-29T23:07:17;2.85;;;1.02;;
27704;SDS011;15109;50.992;6.918;2022-12-29T23:10:38;4.35;;;1.02;;
27704;SDS011;15109;50.992;6.918;2022-12-29T23:13:59;2.00;;;0.90;;
27704;SDS011;15109;50.992;6.918;2022-12-29T23:17:20;0.95;;;0.57;;
27704;SDS011;15109;50.992;6.918;2022-12-29T23:20:46;13.65;;;1.40;;
27704;SDS011;15109;50.992;6.918;2022-12-29T23:24:12;3.08;;;1.00;;
27704;SDS011;15109;50.992;6.918;2022-12-29T23:27:33;4.97;;;0.88;;